sensor_id;sensor_type;location;lat;lon;timestamp;P1;durP1;ratioP1;P2;durP2;ratioP2
76176;SDS011;64938;47.696;8.066;2023-07-31T00:00:00;4.73;;;2.97;;
76176;SDS011;64938;47.696;8.066;2023-07-31T00:02:26;4.73;;;2.73;;
76176;SDS011;64938;47.696;8.066;2023-07-31T00:04:51;4.07;;;3.03;;
76176;SDS011;64938;47.696;8.066;2023-07-31T00:07:17;5.50;;;3.40;;
76176;SDS011;64938;47.696;8.066;2023-07-31T00:09:43;4.10;;;2.90;;
76176;SDS011;64938;47.696;8.066;2023-07-31T00:12:08;5.27;;;3.50;;
76176;SDS011;64938;47.696;8.066;2023-07-31T00:14:36;4.37;;;3.40;;
76176;SDS011;64938;47.696;8.066;2023-07-31T00:17:07;3.30;;;2.93;;
76176;SDS011;64938;47.696;8.066;2023-07-31T00:19:32;3.97;;;3.30;;
76176;SDS011;64938;47.696;8.066;2023-07-31T00:21:58;4.73;;;3.57;;
76176;SDS011;64938;47.696;8.066;2023-07-31T00:24:23;5.30;;;3.70;;
76176;SDS011;64938;47.696;8.066;2023-07-31T00:26:49;6.70;;;3.47;;
76176;SDS011;64938;47.696;8.066;2023-07-31T00:29:15;5.67;;;3.73;;
76176;SDS011;64938;47.696;8.066;2023-07-31T00:31:40;4.50;;;3.53;;
76176;SDS011;64938;47.696;8.066;2023-07-31T00:34:06;4.00;;;3.27;;
76176;SDS011;64938;47.696;8.066;2023-07-31T00:36:31;4.20;;;3.67;;
76176;SDS011;64938;47.696;8.066;2023-07-31T00:38:57;4.73;;;3.50;;
76176;SDS011;64938;47.696;8.066;2023-07-31T00:41:22;4.83;;;3.07;;
76176;SDS011;64938;47.696;8.066;2023-07-31T00:43:48;3.77;;;3.47;;
76176;SDS011;64938;47.696;8.066;2023-07-31T00:46:13;5.40;;;4.20;;
76176;SDS011;64938;47.696;8.066;2023-07-31T00:48:39;7.17;;;3.67;;
76176;SDS011;64938;47.696;8.066;2023-07-31T00:51:05;9.67;;;3.63;;
76176;SDS011;64938;47.696;8.066;2023-07-31T00:53:31;3.83;;;3.50;;
76176;SDS011;64938;47.696;8.066;2023-07-31T00:55:57;4.70;;;3.67;;
76176;SDS011;64938;47.696;8.066;2023-07-31T00:58:23;4.83;;;3.70;;
76176;SDS011;64938;47.696;8.066;2023-07-31T01:00:49;4.20;;;3.77;;
76176;SDS011;64938;47.696;8.066;2023-07-31T01:03:15;5.10;;;3.23;;
76176;SDS011;64938;47.696;8.066;2023-07-31T01:08:23;4.80;;;4.10;;
76176;SDS011;64938;47.696;8.066;2023-07-31T01:11:06;5.63;;;3.70;;
76176;SDS011;64938;47.696;8.066;2023-07-31T01:13:37;3.77;;;3.33;;
76176;SDS011;64938;47.696;8.066;2023-07-31T01:16:03;4.23;;;3.83;;
76176;SDS011;64938;47.696;8.066;2023-07-31T01:18:29;4.77;;;3.60;;
76176;SDS011;64938;47.696;8.066;2023-07-31T01:20:56;3.70;;;3.33;;
76176;SDS011;64938;47.696;8.066;2023-07-31T01:26:56;4.37;;;3.27;;
76176;SDS011;64938;47.696;8.066;2023-07-31T01:30:08;3.20;;;2.90;;
76176;SDS011;64938;47.696;8.066;2023-07-31T01:32:12;4.80;;;3.27;;
76176;SDS011;64938;47.696;8.066;2023-07-31T01:34:39;5.50;;;2.90;;
76176;SDS011;64938;47.696;8.066;2023-07-31T01:37:04;3.70;;;3.00;;
76176;SDS011;64938;47.696;8.066;2023-07-31T01:39:30;7.53;;;2.90;;
76176;SDS011;64938;47.696;8.066;2023-07-31T01:41:56;5.20;;;3.50;;
76176;SDS011;64938;47.696;8.066;2023-07-31T01:44:21;3.33;;;2.67;;
76176;SDS011;64938;47.696;8.066;2023-07-31T01:46:49;8.83;;;2.83;;
76176;SDS011;64938;47.696;8.066;2023-07-31T01:49:14;3.80;;;3.50;;
76176;SDS011;64938;47.696;8.066;2023-07-31T01:51:40;3.13;;;2.83;;
76176;SDS011;64938;47.696;8.066;2023-07-31T01:54:10;3.90;;;3.50;;
76176;SDS011;64938;47.696;8.066;2023-07-31T01:56:38;3.57;;;3.00;;
76176;SDS011;64938;47.696;8.066;2023-07-31T01:59:04;3.43;;;2.97;;
76176;SDS011;64938;47.696;8.066;2023-07-31T02:01:30;5.23;;;3.00;;
76176;SDS011;64938;47.696;8.066;2023-07-31T02:03:55;3.33;;;3.03;;
76176;SDS011;64938;47.696;8.066;2023-07-31T02:06:23;3.90;;;3.17;;
76176;SDS011;64938;47.696;8.066;2023-07-31T02:08:49;6.17;;;2.97;;
76176;SDS011;64938;47.696;8.066;2023-07-31T02:11:15;3.30;;;3.00;;
76176;SDS011;64938;47.696;8.066;2023-07-31T02:13:40;3.60;;;3.03;;
76176;SDS011;64938;47.696;8.066;2023-07-31T02:16:06;4.10;;;3.03;;
76176;SDS011;64938;47.696;8.066;2023-07-31T02:18:32;4.03;;;2.80;;
76176;SDS011;64938;47.696;8.066;2023-07-31T02:20:57;4.83;;;3.03;;
76176;SDS011;64938;47.696;8.066;2023-07-31T02:23:23;3.47;;;2.70;;
76176;SDS011;64938;47.696;8.066;2023-07-31T02:25:48;2.90;;;2.60;;
76176;SDS011;64938;47.696;8.066;2023-07-31T02:28:14;3.00;;;2.63;;
76176;SDS011;64938;47.696;8.066;2023-07-31T02:30:39;3.47;;;2.80;;
76176;SDS011;64938;47.696;8.066;2023-07-31T02:33:05;3.73;;;2.90;;
76176;SDS011;64938;47.696;8.066;2023-07-31T02:35:33;4.60;;;2.30;;
76176;SDS011;64938;47.696;8.066;2023-07-31T02:38:00;4.40;;;2.63;;
76176;SDS011;64938;47.696;8.066;2023-07-31T02:40:25;6.40;;;3.03;;
76176;SDS011;64938;47.696;8.066;2023-07-31T02:42:51;4.27;;;2.70;;
76176;SDS011;64938;47.696;8.066;2023-07-31T02:45:19;2.80;;;2.60;;
76176;SDS011;64938;47.696;8.066;2023-07-31T02:47:44;3.30;;;3.00;;
76176;SDS011;64938;47.696;8.066;2023-07-31T02:50:10;3.37;;;2.37;;
76176;SDS011;64938;47.696;8.066;2023-07-31T02:52:36;5.07;;;3.50;;
76176;SDS011;64938;47.696;8.066;2023-07-31T02:55:03;3.67;;;2.63;;
76176;SDS011;64938;47.696;8.066;2023-07-31T02:57:33;3.80;;;3.20;;
76176;SDS011;64938;47.696;8.066;2023-07-31T02:59:58;3.47;;;2.90;;
76176;SDS011;64938;47.696;8.066;2023-07-31T03:02:24;5.23;;;3.30;;
76176;SDS011;64938;47.696;8.066;2023-07-31T03:04:53;5.33;;;3.37;;
76176;SDS011;64938;47.696;8.066;2023-07-31T03:07:18;3.13;;;2.83;;
76176;SDS011;64938;47.696;8.066;2023-07-31T03:09:44;4.53;;;3.00;;
76176;SDS011;64938;47.696;8.066;2023-07-31T03:12:09;4.50;;;3.40;;
76176;SDS011;64938;47.696;8.066;2023-07-31T03:14:35;5.60;;;3.03;;
76176;SDS011;64938;47.696;8.066;2023-07-31T03:17:01;4.33;;;2.83;;
76176;SDS011;64938;47.696;8.066;2023-07-31T03:19:26;4.63;;;2.80;;
76176;SDS011;64938;47.696;8.066;2023-07-31T03:21:55;4.87;;;3.10;;
76176;SDS011;64938;47.696;8.066;2023-07-31T03:24:20;6.37;;;3.83;;
76176;SDS011;64938;47.696;8.066;2023-07-31T03:26:46;3.37;;;2.70;;
76176;SDS011;64938;47.696;8.066;2023-07-31T03:29:13;5.33;;;3.00;;
76176;SDS011;64938;47.696;8.066;2023-07-31T03:31:39;7.57;;;3.23;;
76176;SDS011;64938;47.696;8.066;2023-07-31T03:34:04;7.83;;;3.50;;
76176;SDS011;64938;47.696;8.066;2023-07-31T03:36:30;5.47;;;3.43;;
76176;SDS011;64938;47.696;8.066;2023-07-31T03:38:58;3.23;;;2.73;;
76176;SDS011;64938;47.696;8.066;2023-07-31T03:41:24;5.30;;;2.90;;
76176;SDS011;64938;47.696;8.066;2023-07-31T03:43:50;5.90;;;3.00;;
76176;SDS011;64938;47.696;8.066;2023-07-31T03:46:21;3.83;;;2.70;;
76176;SDS011;64938;47.696;8.066;2023-07-31T03:48:48;8.40;;;3.73;;
76176;SDS011;64938;47.696;8.066;2023-07-31T03:51:13;4.53;;;2.77;;
76176;SDS011;64938;47.696;8.066;2023-07-31T03:53:41;5.00;;;2.50;;
76176;SDS011;64938;47.696;8.066;2023-07-31T03:56:07;5.50;;;3.30;;
76176;SDS011;64938;47.696;8.066;2023-07-31T03:58:33;5.60;;;3.10;;
76176;SDS011;64938;47.696;8.066;2023-07-31T04:00:58;4.03;;;3.10;;
76176;SDS011;64938;47.696;8.066;2023-07-31T04:03:24;3.53;;;2.57;;
76176;SDS011;64938;47.696;8.066;2023-07-31T04:05:49;4.30;;;2.93;;
76176;SDS011;64938;47.696;8.066;2023-07-31T04:08:15;3.23;;;2.87;;
76176;SDS011;64938;47.696;8.066;2023-07-31T04:10:41;3.70;;;2.93;;
76176;SDS011;64938;47.696;8.066;2023-07-31T04:13:12;7.37;;;3.17;;
76176;SDS011;64938;47.696;8.066;2023-07-31T04:15:38;5.13;;;3.43;;
76176;SDS011;64938;47.696;8.066;2023-07-31T04:18:04;6.37;;;3.20;;
76176;SDS011;64938;47.696;8.066;2023-07-31T04:20:30;3.47;;;3.17;;
76176;SDS011;64938;47.696;8.066;2023-07-31T04:22:55;3.93;;;3.30;;
76176;SDS011;64938;47.696;8.066;2023-07-31T04:25:21;4.07;;;3.10;;
76176;SDS011;64938;47.696;8.066;2023-07-31T04:27:47;5.53;;;3.03;;
76176;SDS011;64938;47.696;8.066;2023-07-31T04:30:12;7.57;;;2.90;;
76176;SDS011;64938;47.696;8.066;2023-07-31T04:32:38;5.63;;;3.13;;
76176;SDS011;64938;47.696;8.066;2023-07-31T04:35:04;6.10;;;2.87;;
76176;SDS011;64938;47.696;8.066;2023-07-31T04:37:29;4.03;;;2.90;;
76176;SDS011;64938;47.696;8.066;2023-07-31T04:39:56;5.53;;;3.43;;
76176;SDS011;64938;47.696;8.066;2023-07-31T04:42:23;3.67;;;2.93;;
76176;SDS011;64938;47.696;8.066;2023-07-31T04:44:49;3.40;;;2.53;;
76176;SDS011;64938;47.696;8.066;2023-07-31T04:47:15;5.00;;;3.10;;
76176;SDS011;64938;47.696;8.066;2023-07-31T04:49:40;3.23;;;2.40;;
76176;SDS011;64938;47.696;8.066;2023-07-31T04:52:06;4.00;;;2.90;;
76176;SDS011;64938;47.696;8.066;2023-07-31T04:54:31;4.80;;;3.13;;
76176;SDS011;64938;47.696;8.066;2023-07-31T04:56:57;3.80;;;3.13;;
76176;SDS011;64938;47.696;8.066;2023-07-31T04:59:22;3.80;;;3.10;;
76176;SDS011;64938;47.696;8.066;2023-07-31T05:01:48;3.93;;;2.60;;
76176;SDS011;64938;47.696;8.066;2023-07-31T05:04:13;3.77;;;2.63;;
76176;SDS011;64938;47.696;8.066;2023-07-31T05:06:40;5.13;;;2.83;;
76176;SDS011;64938;47.696;8.066;2023-07-31T05:09:06;4.37;;;2.57;;
76176;SDS011;64938;47.696;8.066;2023-07-31T05:11:31;6.73;;;2.77;;
76176;SDS011;64938;47.696;8.066;2023-07-31T05:13:57;4.50;;;2.80;;
76176;SDS011;64938;47.696;8.066;2023-07-31T05:16:23;3.03;;;2.77;;
76176;SDS011;64938;47.696;8.066;2023-07-31T05:18:48;3.33;;;2.57;;
76176;SDS011;64938;47.696;8.066;2023-07-31T05:21:14;3.20;;;2.20;;
76176;SDS011;64938;47.696;8.066;2023-07-31T05:23:40;3.40;;;2.50;;
76176;SDS011;64938;47.696;8.066;2023-07-31T05:26:07;5.13;;;2.80;;
76176;SDS011;64938;47.696;8.066;2023-07-31T05:28:36;7.43;;;2.90;;
76176;SDS011;64938;47.696;8.066;2023-07-31T05:31:03;4.10;;;3.13;;
76176;SDS011;64938;47.696;8.066;2023-07-31T05:33:29;3.03;;;2.47;;
76176;SDS011;64938;47.696;8.066;2023-07-31T05:35:56;3.70;;;2.50;;
76176;SDS011;64938;47.696;8.066;2023-07-31T05:38:22;4.10;;;2.70;;
76176;SDS011;64938;47.696;8.066;2023-07-31T05:40:50;3.40;;;2.73;;
76176;SDS011;64938;47.696;8.066;2023-07-31T05:43:16;5.50;;;2.70;;
76176;SDS011;64938;47.696;8.066;2023-07-31T05:45:42;2.83;;;2.53;;
76176;SDS011;64938;47.696;8.066;2023-07-31T05:48:07;4.23;;;2.40;;
76176;SDS011;64938;47.696;8.066;2023-07-31T05:50:34;3.67;;;2.53;;
76176;SDS011;64938;47.696;8.066;2023-07-31T05:53:00;3.60;;;2.57;;
76176;SDS011;64938;47.696;8.066;2023-07-31T05:55:25;4.43;;;2.40;;
76176;SDS011;64938;47.696;8.066;2023-07-31T05:57:52;4.20;;;2.33;;
76176;SDS011;64938;47.696;8.066;2023-07-31T06:00:18;4.40;;;2.70;;
76176;SDS011;64938;47.696;8.066;2023-07-31T06:02:44;4.63;;;2.77;;
76176;SDS011;64938;47.696;8.066;2023-07-31T06:05:10;4.60;;;2.50;;
76176;SDS011;64938;47.696;8.066;2023-07-31T06:07:35;4.90;;;2.43;;
76176;SDS011;64938;47.696;8.066;2023-07-31T06:10:01;5.27;;;2.90;;
76176;SDS011;64938;47.696;8.066;2023-07-31T06:12:31;3.10;;;2.80;;
76176;SDS011;64938;47.696;8.066;2023-07-31T06:14:57;3.60;;;2.93;;
76176;SDS011;64938;47.696;8.066;2023-07-31T06:17:26;3.27;;;2.20;;
76176;SDS011;64938;47.696;8.066;2023-07-31T06:19:56;4.53;;;2.03;;
76176;SDS011;64938;47.696;8.066;2023-07-31T06:22:24;6.17;;;2.77;;
76176;SDS011;64938;47.696;8.066;2023-07-31T06:24:49;3.93;;;2.67;;
76176;SDS011;64938;47.696;8.066;2023-07-31T06:27:15;5.07;;;2.57;;
76176;SDS011;64938;47.696;8.066;2023-07-31T06:29:41;4.50;;;2.20;;
76176;SDS011;64938;47.696;8.066;2023-07-31T06:32:07;2.63;;;2.07;;
76176;SDS011;64938;47.696;8.066;2023-07-31T06:34:33;4.13;;;2.50;;
76176;SDS011;64938;47.696;8.066;2023-07-31T06:37:00;3.53;;;2.07;;
76176;SDS011;64938;47.696;8.066;2023-07-31T06:39:26;2.60;;;1.60;;
76176;SDS011;64938;47.696;8.066;2023-07-31T06:41:51;2.77;;;2.20;;
76176;SDS011;64938;47.696;8.066;2023-07-31T06:44:17;5.80;;;2.80;;
76176;SDS011;64938;47.696;8.066;2023-07-31T06:46:42;3.70;;;2.00;;
76176;SDS011;64938;47.696;8.066;2023-07-31T06:49:08;4.80;;;2.30;;
76176;SDS011;64938;47.696;8.066;2023-07-31T06:51:34;3.00;;;2.17;;
76176;SDS011;64938;47.696;8.066;2023-07-31T06:54:01;3.20;;;2.27;;
76176;SDS011;64938;47.696;8.066;2023-07-31T06:56:26;3.47;;;2.13;;
76176;SDS011;64938;47.696;8.066;2023-07-31T06:58:54;2.37;;;2.17;;
76176;SDS011;64938;47.696;8.066;2023-07-31T07:01:22;3.20;;;2.10;;
76176;SDS011;64938;47.696;8.066;2023-07-31T07:03:49;4.13;;;2.30;;
76176;SDS011;64938;47.696;8.066;2023-07-31T07:06:16;2.83;;;2.10;;
76176;SDS011;64938;47.696;8.066;2023-07-31T07:08:44;3.60;;;2.50;;
76176;SDS011;64938;47.696;8.066;2023-07-31T07:11:10;3.43;;;2.20;;
76176;SDS011;64938;47.696;8.066;2023-07-31T07:13:36;3.63;;;2.00;;
76176;SDS011;64938;47.696;8.066;2023-07-31T07:16:02;3.20;;;1.90;;
76176;SDS011;64938;47.696;8.066;2023-07-31T07:18:27;3.13;;;2.00;;
76176;SDS011;64938;47.696;8.066;2023-07-31T07:20:53;5.70;;;1.90;;
76176;SDS011;64938;47.696;8.066;2023-07-31T07:23:19;3.50;;;1.80;;
76176;SDS011;64938;47.696;8.066;2023-07-31T07:25:47;2.00;;;1.70;;
76176;SDS011;64938;47.696;8.066;2023-07-31T07:28:14;4.67;;;1.87;;
76176;SDS011;64938;47.696;8.066;2023-07-31T07:30:41;2.63;;;2.00;;
76176;SDS011;64938;47.696;8.066;2023-07-31T07:33:06;3.13;;;1.97;;
76176;SDS011;64938;47.696;8.066;2023-07-31T07:35:35;2.00;;;1.50;;
76176;SDS011;64938;47.696;8.066;2023-07-31T07:38:02;2.30;;;1.63;;
76176;SDS011;64938;47.696;8.066;2023-07-31T07:40:28;3.90;;;2.10;;
76176;SDS011;64938;47.696;8.066;2023-07-31T07:42:53;5.83;;;2.97;;
76176;SDS011;64938;47.696;8.066;2023-07-31T07:45:22;3.00;;;2.30;;
76176;SDS011;64938;47.696;8.066;2023-07-31T07:47:47;3.73;;;1.87;;
76176;SDS011;64938;47.696;8.066;2023-07-31T07:50:13;5.40;;;2.03;;
76176;SDS011;64938;47.696;8.066;2023-07-31T07:52:38;2.70;;;2.10;;
76176;SDS011;64938;47.696;8.066;2023-07-31T07:55:04;5.50;;;2.10;;
76176;SDS011;64938;47.696;8.066;2023-07-31T07:57:32;2.27;;;2.07;;
76176;SDS011;64938;47.696;8.066;2023-07-31T07:59:58;4.30;;;3.13;;
76176;SDS011;64938;47.696;8.066;2023-07-31T08:02:25;3.53;;;2.43;;
76176;SDS011;64938;47.696;8.066;2023-07-31T08:04:51;2.77;;;2.47;;
76176;SDS011;64938;47.696;8.066;2023-07-31T08:07:16;3.43;;;2.10;;
76176;SDS011;64938;47.696;8.066;2023-07-31T08:09:44;3.20;;;2.13;;
76176;SDS011;64938;47.696;8.066;2023-07-31T08:12:10;3.97;;;2.00;;
76176;SDS011;64938;47.696;8.066;2023-07-31T08:14:36;2.90;;;2.30;;
76176;SDS011;64938;47.696;8.066;2023-07-31T08:17:01;2.50;;;2.13;;
76176;SDS011;64938;47.696;8.066;2023-07-31T08:19:27;3.93;;;2.40;;
76176;SDS011;64938;47.696;8.066;2023-07-31T08:21:53;3.37;;;2.20;;
76176;SDS011;64938;47.696;8.066;2023-07-31T08:24:23;3.57;;;2.27;;
76176;SDS011;64938;47.696;8.066;2023-07-31T08:26:50;3.70;;;2.17;;
76176;SDS011;64938;47.696;8.066;2023-07-31T08:29:22;2.37;;;2.03;;
76176;SDS011;64938;47.696;8.066;2023-07-31T08:31:47;4.73;;;2.30;;
76176;SDS011;64938;47.696;8.066;2023-07-31T08:34:13;2.50;;;2.03;;
76176;SDS011;64938;47.696;8.066;2023-07-31T08:36:38;2.97;;;2.20;;
76176;SDS011;64938;47.696;8.066;2023-07-31T08:39:06;2.37;;;1.97;;
76176;SDS011;64938;47.696;8.066;2023-07-31T08:41:31;2.87;;;1.80;;
76176;SDS011;64938;47.696;8.066;2023-07-31T08:44:09;3.83;;;2.17;;
76176;SDS011;64938;47.696;8.066;2023-07-31T08:46:36;6.17;;;2.20;;
76176;SDS011;64938;47.696;8.066;2023-07-31T08:49:04;3.63;;;1.90;;
76176;SDS011;64938;47.696;8.066;2023-07-31T08:51:34;2.90;;;2.00;;
76176;SDS011;64938;47.696;8.066;2023-07-31T08:54:03;2.10;;;1.73;;
76176;SDS011;64938;47.696;8.066;2023-07-31T08:56:32;2.27;;;2.07;;
76176;SDS011;64938;47.696;8.066;2023-07-31T08:58:58;3.90;;;2.07;;
76176;SDS011;64938;47.696;8.066;2023-07-31T09:01:37;2.60;;;2.33;;
76176;SDS011;64938;47.696;8.066;2023-07-31T09:04:12;2.70;;;2.00;;
76176;SDS011;64938;47.696;8.066;2023-07-31T09:06:38;4.97;;;2.50;;
76176;SDS011;64938;47.696;8.066;2023-07-31T09:09:04;3.47;;;2.43;;
76176;SDS011;64938;47.696;8.066;2023-07-31T09:11:33;2.80;;;2.40;;
76176;SDS011;64938;47.696;8.066;2023-07-31T09:13:58;3.90;;;2.33;;
76176;SDS011;64938;47.696;8.066;2023-07-31T09:16:28;4.80;;;2.50;;
76176;SDS011;64938;47.696;8.066;2023-07-31T09:19:00;2.63;;;2.10;;
76176;SDS011;64938;47.696;8.066;2023-07-31T09:21:32;3.60;;;2.70;;
76176;SDS011;64938;47.696;8.066;2023-07-31T09:23:58;2.37;;;2.13;;
76176;SDS011;64938;47.696;8.066;2023-07-31T09:29:18;2.73;;;2.20;;
76176;SDS011;64938;47.696;8.066;2023-07-31T09:31:50;6.40;;;2.73;;
76176;SDS011;64938;47.696;8.066;2023-07-31T09:34:15;3.70;;;2.70;;
76176;SDS011;64938;47.696;8.066;2023-07-31T09:36:42;3.23;;;2.40;;
76176;SDS011;64938;47.696;8.066;2023-07-31T09:39:12;2.70;;;2.20;;
76176;SDS011;64938;47.696;8.066;2023-07-31T09:41:39;4.63;;;2.30;;
76176;SDS011;64938;47.696;8.066;2023-07-31T09:44:11;4.37;;;2.23;;
76176;SDS011;64938;47.696;8.066;2023-07-31T09:46:37;2.67;;;2.30;;
76176;SDS011;64938;47.696;8.066;2023-07-31T09:49:06;2.63;;;2.33;;
76176;SDS011;64938;47.696;8.066;2023-07-31T09:51:37;3.10;;;2.10;;
76176;SDS011;64938;47.696;8.066;2023-07-31T09:54:12;5.00;;;2.17;;
76176;SDS011;64938;47.696;8.066;2023-07-31T09:56:44;3.30;;;1.97;;
76176;SDS011;64938;47.696;8.066;2023-07-31T09:59:22;2.90;;;2.67;;
76176;SDS011;64938;47.696;8.066;2023-07-31T10:01:48;5.13;;;3.00;;
76176;SDS011;64938;47.696;8.066;2023-07-31T10:04:14;3.80;;;2.80;;
76176;SDS011;64938;47.696;8.066;2023-07-31T10:06:52;5.47;;;2.80;;
76176;SDS011;64938;47.696;8.066;2023-07-31T10:09:22;3.37;;;2.33;;
76176;SDS011;64938;47.696;8.066;2023-07-31T10:11:58;3.20;;;2.50;;
76176;SDS011;64938;47.696;8.066;2023-07-31T10:14:25;3.17;;;2.40;;
76176;SDS011;64938;47.696;8.066;2023-07-31T10:16:53;3.40;;;2.43;;
76176;SDS011;64938;47.696;8.066;2023-07-31T10:19:23;3.87;;;2.33;;
76176;SDS011;64938;47.696;8.066;2023-07-31T10:21:49;3.20;;;2.60;;
76176;SDS011;64938;47.696;8.066;2023-07-31T10:24:24;3.83;;;2.63;;
76176;SDS011;64938;47.696;8.066;2023-07-31T10:27:18;5.23;;;2.60;;
76176;SDS011;64938;47.696;8.066;2023-07-31T10:29:52;2.93;;;2.40;;
76176;SDS011;64938;47.696;8.066;2023-07-31T10:32:21;4.60;;;2.70;;
76176;SDS011;64938;47.696;8.066;2023-07-31T10:34:52;3.60;;;2.30;;
76176;SDS011;64938;47.696;8.066;2023-07-31T10:40:02;4.10;;;2.53;;
76176;SDS011;64938;47.696;8.066;2023-07-31T10:42:55;4.13;;;2.40;;
76176;SDS011;64938;47.696;8.066;2023-07-31T10:45:36;3.67;;;2.93;;
76176;SDS011;64938;47.696;8.066;2023-07-31T10:48:07;4.00;;;2.67;;
76176;SDS011;64938;47.696;8.066;2023-07-31T10:50:38;5.10;;;2.63;;
76176;SDS011;64938;47.696;8.066;2023-07-31T10:53:06;4.07;;;2.63;;
76176;SDS011;64938;47.696;8.066;2023-07-31T10:55:50;4.67;;;2.80;;
76176;SDS011;64938;47.696;8.066;2023-07-31T10:58:20;4.03;;;2.47;;
76176;SDS011;64938;47.696;8.066;2023-07-31T11:00:48;3.13;;;2.70;;
76176;SDS011;64938;47.696;8.066;2023-07-31T11:03:18;3.27;;;2.50;;
76176;SDS011;64938;47.696;8.066;2023-07-31T11:05:50;2.97;;;2.50;;
76176;SDS011;64938;47.696;8.066;2023-07-31T11:08:29;2.83;;;2.50;;
76176;SDS011;64938;47.696;8.066;2023-07-31T11:13:39;3.80;;;2.40;;
76176;SDS011;64938;47.696;8.066;2023-07-31T11:16:12;3.23;;;2.10;;
76176;SDS011;64938;47.696;8.066;2023-07-31T11:18:39;4.33;;;2.43;;
76176;SDS011;64938;47.696;8.066;2023-07-31T11:21:14;3.00;;;2.00;;
76176;SDS011;64938;47.696;8.066;2023-07-31T11:23:46;3.40;;;2.47;;
76176;SDS011;64938;47.696;8.066;2023-07-31T11:26:16;2.73;;;2.10;;
76176;SDS011;64938;47.696;8.066;2023-07-31T11:28:46;4.03;;;1.90;;
76176;SDS011;64938;47.696;8.066;2023-07-31T11:31:12;2.50;;;2.00;;
76176;SDS011;64938;47.696;8.066;2023-07-31T11:33:38;2.73;;;2.10;;
76176;SDS011;64938;47.696;8.066;2023-07-31T11:36:04;4.10;;;2.03;;
76176;SDS011;64938;47.696;8.066;2023-07-31T11:38:30;2.80;;;2.13;;
76176;SDS011;64938;47.696;8.066;2023-07-31T11:40:59;3.33;;;2.10;;
76176;SDS011;64938;47.696;8.066;2023-07-31T11:43:27;3.70;;;2.43;;
76176;SDS011;64938;47.696;8.066;2023-07-31T11:45:56;3.03;;;2.27;;
76176;SDS011;64938;47.696;8.066;2023-07-31T11:50:59;2.73;;;2.50;;
76176;SDS011;64938;47.696;8.066;2023-07-31T11:53:38;4.83;;;2.40;;
76176;SDS011;64938;47.696;8.066;2023-07-31T11:56:14;4.10;;;2.43;;
76176;SDS011;64938;47.696;8.066;2023-07-31T11:58:42;4.07;;;2.40;;
76176;SDS011;64938;47.696;8.066;2023-07-31T12:01:15;3.27;;;2.23;;
76176;SDS011;64938;47.696;8.066;2023-07-31T12:03:45;2.73;;;2.43;;
76176;SDS011;64938;47.696;8.066;2023-07-31T12:06:14;5.33;;;2.70;;
76176;SDS011;64938;47.696;8.066;2023-07-31T12:08:43;3.60;;;2.70;;
76176;SDS011;64938;47.696;8.066;2023-07-31T12:11:09;2.60;;;2.40;;
76176;SDS011;64938;47.696;8.066;2023-07-31T12:13:35;5.40;;;2.60;;
76176;SDS011;64938;47.696;8.066;2023-07-31T12:16:01;3.93;;;2.83;;
76176;SDS011;64938;47.696;8.066;2023-07-31T12:18:29;2.47;;;2.27;;
76176;SDS011;64938;47.696;8.066;2023-07-31T12:20:59;3.70;;;2.43;;
76176;SDS011;64938;47.696;8.066;2023-07-31T12:23:29;3.43;;;2.47;;
76176;SDS011;64938;47.696;8.066;2023-07-31T12:26:07;3.17;;;2.63;;
76176;SDS011;64938;47.696;8.066;2023-07-31T12:28:48;2.83;;;2.43;;
76176;SDS011;64938;47.696;8.066;2023-07-31T12:31:21;3.40;;;2.63;;
76176;SDS011;64938;47.696;8.066;2023-07-31T12:33:48;3.97;;;2.80;;
76176;SDS011;64938;47.696;8.066;2023-07-31T12:36:16;3.73;;;2.57;;
76176;SDS011;64938;47.696;8.066;2023-07-31T12:38:46;4.97;;;2.53;;
76176;SDS011;64938;47.696;8.066;2023-07-31T12:41:13;4.17;;;2.87;;
76176;SDS011;64938;47.696;8.066;2023-07-31T12:43:40;4.10;;;2.57;;
76176;SDS011;64938;47.696;8.066;2023-07-31T12:46:06;2.80;;;2.40;;
76176;SDS011;64938;47.696;8.066;2023-07-31T12:48:36;3.70;;;2.90;;
76176;SDS011;64938;47.696;8.066;2023-07-31T12:51:04;3.70;;;2.50;;
76176;SDS011;64938;47.696;8.066;2023-07-31T12:53:38;3.30;;;2.40;;
76176;SDS011;64938;47.696;8.066;2023-07-31T12:56:06;6.17;;;2.77;;
76176;SDS011;64938;47.696;8.066;2023-07-31T12:58:32;4.40;;;2.77;;
76176;SDS011;64938;47.696;8.066;2023-07-31T13:00:59;3.60;;;3.10;;
76176;SDS011;64938;47.696;8.066;2023-07-31T13:03:24;2.80;;;2.60;;
76176;SDS011;64938;47.696;8.066;2023-07-31T13:05:50;3.30;;;2.90;;
76176;SDS011;64938;47.696;8.066;2023-07-31T13:08:17;3.77;;;2.90;;
76176;SDS011;64938;47.696;8.066;2023-07-31T13:10:43;3.63;;;2.93;;
76176;SDS011;64938;47.696;8.066;2023-07-31T13:13:10;3.80;;;3.30;;
76176;SDS011;64938;47.696;8.066;2023-07-31T13:15:40;3.57;;;3.20;;
76176;SDS011;64938;47.696;8.066;2023-07-31T13:18:06;4.47;;;3.07;;
76176;SDS011;64938;47.696;8.066;2023-07-31T13:20:32;3.40;;;3.03;;
76176;SDS011;64938;47.696;8.066;2023-07-31T13:22:57;3.07;;;2.77;;
76176;SDS011;64938;47.696;8.066;2023-07-31T13:25:25;3.33;;;2.93;;
76176;SDS011;64938;47.696;8.066;2023-07-31T13:27:54;3.37;;;2.83;;
76176;SDS011;64938;47.696;8.066;2023-07-31T13:30:20;5.10;;;3.00;;
76176;SDS011;64938;47.696;8.066;2023-07-31T13:32:46;5.23;;;3.33;;
76176;SDS011;64938;47.696;8.066;2023-07-31T13:35:12;5.80;;;3.43;;
76176;SDS011;64938;47.696;8.066;2023-07-31T13:37:41;4.67;;;3.13;;
76176;SDS011;64938;47.696;8.066;2023-07-31T13:40:07;3.77;;;3.00;;
76176;SDS011;64938;47.696;8.066;2023-07-31T13:42:33;3.33;;;2.50;;
76176;SDS011;64938;47.696;8.066;2023-07-31T13:44:58;3.40;;;2.40;;
76176;SDS011;64938;47.696;8.066;2023-07-31T13:47:24;5.10;;;3.10;;
76176;SDS011;64938;47.696;8.066;2023-07-31T13:49:52;3.30;;;2.80;;
76176;SDS011;64938;47.696;8.066;2023-07-31T13:52:21;3.87;;;3.20;;
76176;SDS011;64938;47.696;8.066;2023-07-31T13:54:51;3.07;;;2.83;;
76176;SDS011;64938;47.696;8.066;2023-07-31T13:57:17;5.10;;;4.00;;
76176;SDS011;64938;47.696;8.066;2023-07-31T13:59:42;4.30;;;2.77;;
76176;SDS011;64938;47.696;8.066;2023-07-31T14:02:08;3.80;;;3.10;;
76176;SDS011;64938;47.696;8.066;2023-07-31T14:04:38;3.70;;;3.40;;
76176;SDS011;64938;47.696;8.066;2023-07-31T14:07:04;4.23;;;3.43;;
76176;SDS011;64938;47.696;8.066;2023-07-31T14:09:31;5.07;;;3.10;;
76176;SDS011;64938;47.696;8.066;2023-07-31T14:11:57;2.93;;;2.63;;
76176;SDS011;64938;47.696;8.066;2023-07-31T14:14:22;3.50;;;3.20;;
76176;SDS011;64938;47.696;8.066;2023-07-31T14:16:48;4.63;;;3.17;;
76176;SDS011;64938;47.696;8.066;2023-07-31T14:19:17;5.23;;;3.30;;
76176;SDS011;64938;47.696;8.066;2023-07-31T14:21:43;3.70;;;3.10;;
76176;SDS011;64938;47.696;8.066;2023-07-31T14:24:08;5.77;;;3.20;;
76176;SDS011;64938;47.696;8.066;2023-07-31T14:26:34;3.97;;;2.97;;
76176;SDS011;64938;47.696;8.066;2023-07-31T14:28:59;4.37;;;3.53;;
76176;SDS011;64938;47.696;8.066;2023-07-31T14:31:25;4.40;;;3.00;;
76176;SDS011;64938;47.696;8.066;2023-07-31T14:33:54;4.43;;;3.07;;
76176;SDS011;64938;47.696;8.066;2023-07-31T14:36:19;3.93;;;2.83;;
76176;SDS011;64938;47.696;8.066;2023-07-31T14:38:54;3.97;;;3.57;;
76176;SDS011;64938;47.696;8.066;2023-07-31T14:41:20;3.47;;;3.10;;
76176;SDS011;64938;47.696;8.066;2023-07-31T14:43:47;3.63;;;3.33;;
76176;SDS011;64938;47.696;8.066;2023-07-31T14:46:13;3.30;;;3.00;;
76176;SDS011;64938;47.696;8.066;2023-07-31T14:48:39;4.10;;;3.40;;
76176;SDS011;64938;47.696;8.066;2023-07-31T14:51:05;3.43;;;3.13;;
76176;SDS011;64938;47.696;8.066;2023-07-31T14:53:31;3.87;;;3.47;;
76176;SDS011;64938;47.696;8.066;2023-07-31T14:55:59;3.03;;;2.60;;
76176;SDS011;64938;47.696;8.066;2023-07-31T14:58:25;3.63;;;3.20;;
76176;SDS011;64938;47.696;8.066;2023-07-31T15:00:51;4.23;;;3.40;;
76176;SDS011;64938;47.696;8.066;2023-07-31T15:03:19;3.90;;;3.20;;
76176;SDS011;64938;47.696;8.066;2023-07-31T15:05:45;3.37;;;3.00;;